createdAt,value
2023-01-31T00:04:01.476Z,8.50
2023-01-31T00:08:02.473Z,7.83
2023-01-31T00:12:03.796Z,6.73
2023-01-31T00:16:05.700Z,6.83
2023-01-31T00:20:08.259Z,7.03
2023-01-31T00:24:11.838Z,6.13
2023-01-31T00:28:13.156Z,7.00
2023-01-31T00:32:14.322Z,5.73
2023-01-31T00:36:18.225Z,5.40
2023-01-31T00:40:19.589Z,6.40
2023-01-31T00:44:20.597Z,7.07
2023-01-31T00:48:21.809Z,6.50
2023-01-31T00:52:25.019Z,7.27
2023-01-31T00:56:26.171Z,7.20
2023-01-31T01:00:27.171Z,6.60
2023-01-31T01:04:28.213Z,6.93
2023-01-31T01:08:30.093Z,5.70
2023-01-31T01:12:31.250Z,5.60
2023-01-31T01:16:36.817Z,5.40
2023-01-31T01:20:38.019Z,5.17
2023-01-31T01:24:38.982Z,5.43
2023-01-31T01:28:40.410Z,5.87
2023-01-31T01:32:41.489Z,4.60
2023-01-31T01:36:44.235Z,5.33
2023-01-31T01:40:46.076Z,5.30
2023-01-31T01:44:59.735Z,6.13
2023-01-31T01:49:13.532Z,4.27
2023-01-31T01:53:21.226Z,5.63
2023-01-31T01:57:26.634Z,6.43
2023-01-31T02:01:31.423Z,5.53
2023-01-31T02:05:36.276Z,4.80
2023-01-31T02:09:43.933Z,6.97
2023-01-31T02:13:46.698Z,7.50
2023-01-31T02:17:48.385Z,6.30
2023-01-31T02:21:59.031Z,9.10
2023-01-31T02:26:34.050Z,7.23
2023-01-31T02:30:44.748Z,7.00
2023-01-31T02:34:55.403Z,7.50
2023-01-31T02:39:20.005Z,7.83
2023-01-31T02:43:27.546Z,6.73
2023-01-31T02:47:59.588Z,5.57
2023-01-31T02:52:16.180Z,5.87
2023-01-31T02:56:29.943Z,8.00
2023-01-31T03:00:34.032Z,9.23
2023-01-31T03:04:37.035Z,6.60
2023-01-31T03:08:41.271Z,7.47
2023-01-31T03:13:10.344Z,9.17
2023-01-31T03:17:33.122Z,6.60
2023-01-31T03:21:41.001Z,5.80
2023-01-31T03:25:44.343Z,7.27
2023-01-31T03:29:45.979Z,6.00
2023-01-31T03:33:55.053Z,7.80
2023-01-31T03:38:02.843Z,5.43
2023-01-31T03:42:10.746Z,5.97
2023-01-31T03:46:20.498Z,5.93
2023-01-31T03:50:25.783Z,5.80
2023-01-31T03:54:30.718Z,7.67
2023-01-31T03:58:35.896Z,6.43
2023-01-31T04:02:37.315Z,6.87
2023-01-31T04:06:38.992Z,7.90
2023-01-31T04:10:40.596Z,6.07
2023-01-31T04:14:42.423Z,6.17
2023-01-31T04:18:43.632Z,5.80
2023-01-31T04:22:44.762Z,5.40
2023-01-31T04:26:46.044Z,5.80
2023-01-31T04:30:52.991Z,8.43
2023-01-31T04:34:54.034Z,5.80
2023-01-31T04:38:55.273Z,4.80
2023-01-31T04:42:56.276Z,5.90
2023-01-31T04:46:57.538Z,6.47
2023-01-31T04:50:58.484Z,5.50
2023-01-31T04:54:59.511Z,5.97
2023-01-31T04:59:03.124Z,6.37
2023-01-31T05:03:04.381Z,5.47
2023-01-31T05:07:05.624Z,5.13
2023-01-31T05:11:07.562Z,4.80
2023-01-31T05:15:11.011Z,5.10
2023-01-31T05:19:14.190Z,7.57
2023-01-31T05:23:17.671Z,4.87
2023-01-31T05:27:18.995Z,5.20
2023-01-31T05:31:20.167Z,7.23
2023-01-31T05:35:21.606Z,6.53
2023-01-31T05:39:22.680Z,5.70
2023-01-31T05:43:23.679Z,5.50
2023-01-31T05:47:24.809Z,5.40
2023-01-31T05:51:25.933Z,6.67
2023-01-31T05:55:27.123Z,4.83
2023-01-31T05:59:30.021Z,6.30
2023-01-31T06:03:31.337Z,5.53
2023-01-31T06:07:32.539Z,5.43
2023-01-31T06:11:33.536Z,5.37
2023-01-31T06:15:35.733Z,6.27
2023-01-31T06:19:37.823Z,7.80
2023-01-31T06:23:39.856Z,6.50
2023-01-31T06:27:41.133Z,6.20
2023-01-31T06:31:45.336Z,7.43
2023-01-31T06:35:46.673Z,7.13
2023-01-31T06:39:47.889Z,9.93
2023-01-31T06:43:49.085Z,7.87
2023-01-31T06:47:50.226Z,7.57
2023-01-31T06:51:51.182Z,11.40
2023-01-31T06:55:52.174Z,8.27
2023-01-31T06:59:53.530Z,8.70
2023-01-31T07:03:54.685Z,9.10
2023-01-31T07:07:56.349Z,8.67
2023-01-31T07:11:57.481Z,7.60
2023-01-31T07:15:58.501Z,8.67
2023-01-31T07:19:59.600Z,9.37
2023-01-31T07:24:00.809Z,9.97
2023-01-31T07:28:02.300Z,7.40
2023-01-31T07:32:03.823Z,8.53
2023-01-31T07:36:06.514Z,8.33
2023-01-31T07:40:08.514Z,9.10
2023-01-31T07:44:12.383Z,7.37
2023-01-31T07:48:13.339Z,8.13
2023-01-31T07:52:14.694Z,7.73
2023-01-31T07:56:18.726Z,7.77
2023-01-31T08:00:39.048Z,7.77
2023-01-31T08:04:40.093Z,7.37
2023-01-31T08:08:42.116Z,7.80
2023-01-31T08:12:43.103Z,7.43
2023-01-31T08:16:44.192Z,6.73
2023-01-31T08:20:45.254Z,7.43
2023-01-31T08:24:46.785Z,6.97
2023-01-31T08:28:49.695Z,7.97
2023-01-31T08:32:50.662Z,8.87
2023-01-31T08:36:51.817Z,10.27
2023-01-31T08:40:52.922Z,7.50
2023-01-31T08:44:54.296Z,8.13
2023-01-31T08:48:55.624Z,7.90
2023-01-31T08:52:58.938Z,8.80
2023-01-31T08:57:00.239Z,8.20
2023-01-31T09:01:05.823Z,8.10
2023-01-31T09:05:10.232Z,6.27
2023-01-31T09:09:11.151Z,6.63
2023-01-31T09:13:12.039Z,6.77
2023-01-31T09:17:13.023Z,7.60
2023-01-31T09:21:20.225Z,6.63
2023-01-31T09:25:33.503Z,6.37
2023-01-31T09:29:24.738Z,5.80
2023-01-31T09:33:25.802Z,6.40
2023-01-31T09:37:30.823Z,6.40
2023-01-31T09:41:38.082Z,6.80
2023-01-31T09:45:43.139Z,6.53
2023-01-31T09:49:54.008Z,7.23
2023-01-31T09:53:57.261Z,7.73
2023-01-31T09:58:01.948Z,7.13
2023-01-31T10:02:15.624Z,7.97
2023-01-31T10:06:26.251Z,7.90
2023-01-31T10:10:39.568Z,7.53
2023-01-31T10:14:50.485Z,8.73
2023-01-31T10:19:01.121Z,7.43
2023-01-31T10:23:09.344Z,7.57
2023-01-31T10:27:32.284Z,6.97
2023-01-31T10:31:37.290Z,8.43
2023-01-31T10:35:43.735Z,8.03
2023-01-31T10:39:48.628Z,9.80
2023-01-31T10:43:53.482Z,7.17
2023-01-31T10:48:00.211Z,8.60
2023-01-31T10:52:24.878Z,7.60
2023-01-31T10:56:39.018Z,8.07
2023-01-31T11:00:40.103Z,7.97
2023-01-31T11:04:42.597Z,11.23
2023-01-31T11:08:58.206Z,7.70
2023-01-31T11:13:03.685Z,7.90
2023-01-31T11:17:08.758Z,8.20
2023-01-31T11:21:10.949Z,9.30
2023-01-31T11:25:19.224Z,7.20
2023-01-31T11:29:43.021Z,8.17
2023-01-31T11:34:01.855Z,8.70
2023-01-31T11:38:21.579Z,7.57
2023-01-31T11:42:23.139Z,6.20
2023-01-31T11:46:24.414Z,6.87
2023-01-31T11:50:35.243Z,7.93
2023-01-31T11:54:36.310Z,6.97
2023-01-31T11:58:39.869Z,7.13
2023-01-31T12:02:41.446Z,8.50
2023-01-31T12:06:46.338Z,7.37
2023-01-31T12:10:48.122Z,6.60
2023-01-31T12:14:49.394Z,8.30
2023-01-31T12:19:15.556Z,6.50
2023-01-31T12:23:26.272Z,7.37
2023-01-31T12:27:50.925Z,9.57
2023-01-31T12:32:07.799Z,7.30
2023-01-31T12:36:27.920Z,7.33
2023-01-31T12:40:41.640Z,10.20
2023-01-31T12:44:52.690Z,7.83
2023-01-31T12:49:17.147Z,6.80
2023-01-31T12:53:21.962Z,7.30
2023-01-31T12:57:29.980Z,7.17
2023-01-31T13:01:40.907Z,6.60
2023-01-31T13:06:14.899Z,7.77
2023-01-31T13:10:34.648Z,6.27
2023-01-31T13:14:39.407Z,6.97
2023-01-31T13:18:44.160Z,7.30
2023-01-31T13:22:51.472Z,6.10
2023-01-31T13:27:02.187Z,6.50
2023-01-31T13:31:06.798Z,6.20
2023-01-31T13:35:21.224Z,7.07
2023-01-31T13:39:41.180Z,9.73
2023-01-31T13:43:42.314Z,7.47
2023-01-31T13:47:47.341Z,6.27
2023-01-31T13:52:05.560Z,7.60
2023-01-31T13:56:10.263Z,8.40
2023-01-31T14:00:23.994Z,9.87
2023-01-31T14:04:31.027Z,8.17
2023-01-31T14:08:51.131Z,9.03
2023-01-31T14:12:55.972Z,8.67
2023-01-31T14:16:57.173Z,8.13
2023-01-31T14:21:02.130Z,8.10
2023-01-31T14:25:12.437Z,9.27
2023-01-31T14:29:22.518Z,9.53
2023-01-31T14:33:26.668Z,9.50
2023-01-31T14:37:43.330Z,10.90
2023-01-31T14:42:07.728Z,9.17
2023-01-31T14:46:15.367Z,9.70
2023-01-31T14:50:36.724Z,9.70
2023-01-31T14:54:41.555Z,8.90
2023-01-31T14:58:45.361Z,8.80
2023-01-31T15:02:56.770Z,7.40
2023-01-31T15:06:58.046Z,7.87
2023-01-31T15:11:03.547Z,6.93
2023-01-31T15:15:25.319Z,6.17
2023-01-31T15:19:31.072Z,8.17
2023-01-31T15:23:35.296Z,7.70
2023-01-31T15:27:42.052Z,6.90
2023-01-31T15:31:46.413Z,6.87
2023-01-31T15:35:54.123Z,7.30
2023-01-31T15:39:59.182Z,7.00
2023-01-31T15:44:13.098Z,5.60
2023-01-31T15:48:17.425Z,6.17
2023-01-31T15:52:21.635Z,5.57
2023-01-31T15:56:25.061Z,5.03
2023-01-31T16:00:31.676Z,6.57
2023-01-31T16:04:32.835Z,5.10
2023-01-31T16:08:36.177Z,4.37
2023-01-31T16:12:40.666Z,6.07
2023-01-31T16:16:45.334Z,5.33
2023-01-31T16:20:51.866Z,5.20
2023-01-31T16:25:01.583Z,4.40
2023-01-31T16:29:12.290Z,4.43
2023-01-31T16:33:18.361Z,7.03
2023-01-31T16:37:41.198Z,4.50
2023-01-31T16:41:50.082Z,5.60
2023-01-31T16:45:55.019Z,4.60
2023-01-31T16:50:21.002Z,6.80
2023-01-31T16:54:26.448Z,5.73
2023-01-31T16:58:43.070Z,5.73
2023-01-31T17:02:44.349Z,5.23
2023-01-31T17:06:49.135Z,4.57
2023-01-31T17:10:51.038Z,5.17
2023-01-31T17:14:54.455Z,5.27
2023-01-31T17:18:55.801Z,5.60
2023-01-31T17:23:02.777Z,6.40
2023-01-31T17:27:00.257Z,4.83
2023-01-31T17:31:01.295Z,5.50
2023-01-31T17:35:06.263Z,4.03
2023-01-31T17:39:07.210Z,4.83
2023-01-31T17:43:11.945Z,6.77
2023-01-31T17:47:15.268Z,5.77
2023-01-31T17:51:16.794Z,5.03
2023-01-31T17:55:19.541Z,5.20
2023-01-31T17:59:26.832Z,5.37
2023-01-31T18:03:25.396Z,4.37
2023-01-31T18:07:28.412Z,4.40
2023-01-31T18:11:29.546Z,3.73
2023-01-31T18:15:31.095Z,4.73
2023-01-31T18:19:32.310Z,4.00
2023-01-31T18:23:33.254Z,4.87
2023-01-31T18:27:34.215Z,4.13
2023-01-31T18:31:35.441Z,4.13
2023-01-31T18:35:36.459Z,4.40
2023-01-31T18:39:37.381Z,3.97
2023-01-31T18:43:38.251Z,6.37
2023-01-31T18:47:39.240Z,5.43
2023-01-31T18:51:42.187Z,4.63
2023-01-31T18:55:43.454Z,3.60
2023-01-31T18:59:44.627Z,5.07
2023-01-31T19:03:49.530Z,4.53
2023-01-31T19:07:50.578Z,5.40
2023-01-31T19:11:51.690Z,5.87
2023-01-31T19:15:56.532Z,4.97
2023-01-31T19:24:09.710Z,6.83
2023-01-31T19:28:11.145Z,5.67
2023-01-31T19:32:12.137Z,5.83
2023-01-31T19:36:15.727Z,11.73
2023-01-31T19:40:18.832Z,7.43
2023-01-31T19:44:20.155Z,7.70
2023-01-31T19:48:22.709Z,6.43
2023-01-31T19:52:24.005Z,6.77
2023-01-31T19:56:25.251Z,6.90
2023-01-31T20:00:26.219Z,9.50
2023-01-31T20:04:29.328Z,7.33
2023-01-31T20:08:31.666Z,6.10
2023-01-31T20:12:32.617Z,5.30
2023-01-31T20:16:33.652Z,6.00
2023-01-31T20:20:34.751Z,6.70
2023-01-31T20:24:35.863Z,6.00
2023-01-31T20:28:36.958Z,12.30
2023-01-31T20:32:38.171Z,6.53
2023-01-31T20:36:39.319Z,7.73
2023-01-31T20:40:40.449Z,5.27
2023-01-31T20:44:41.614Z,6.83
2023-01-31T20:48:42.731Z,5.10
2023-01-31T20:52:43.753Z,5.37
2023-01-31T20:56:44.742Z,4.80
2023-01-31T21:00:46.189Z,6.33
2023-01-31T21:04:47.484Z,8.67
2023-01-31T21:08:48.683Z,7.57
2023-01-31T21:12:51.882Z,6.73
2023-01-31T21:16:52.858Z,6.47
2023-01-31T21:20:55.918Z,6.57
2023-01-31T21:24:57.086Z,7.63
2023-01-31T21:29:01.743Z,7.10
2023-01-31T21:33:03.659Z,7.37
2023-01-31T21:37:04.755Z,7.03
2023-01-31T21:41:25.269Z,5.93
2023-01-31T21:45:41.300Z,6.57
2023-01-31T21:49:42.620Z,5.20
2023-01-31T21:53:44.685Z,5.77
2023-01-31T21:57:46.080Z,7.10
2023-01-31T22:01:47.588Z,6.47
2023-01-31T22:05:48.745Z,6.40
2023-01-31T22:09:49.743Z,5.43
2023-01-31T22:13:55.555Z,6.93
2023-01-31T22:17:55.550Z,6.33
2023-01-31T22:21:58.344Z,6.00
2023-01-31T22:26:07.973Z,6.20
2023-01-31T22:30:16.937Z,5.13
2023-01-31T22:34:15.427Z,4.57
2023-01-31T22:38:18.936Z,4.17
2023-01-31T22:42:19.897Z,4.87
2023-01-31T22:46:24.106Z,4.77
2023-01-31T22:50:27.394Z,5.33
2023-01-31T22:54:28.403Z,6.30
2023-01-31T22:58:29.654Z,6.50
2023-01-31T23:02:31.241Z,7.67
2023-01-31T23:06:33.754Z,8.77
2023-01-31T23:10:34.864Z,8.93
2023-01-31T23:14:36.023Z,9.93
2023-01-31T23:18:37.160Z,8.27
2023-01-31T23:22:38.534Z,9.47
2023-01-31T23:26:39.936Z,10.83
2023-01-31T23:30:43.170Z,10.83
2023-01-31T23:34:44.432Z,10.70
2023-01-31T23:38:45.829Z,10.07
2023-01-31T23:42:46.994Z,10.10
2023-01-31T23:46:49.115Z,10.27
2023-01-31T23:50:50.096Z,10.27
2023-01-31T23:54:51.281Z,9.60
2023-01-31T23:58:58.024Z,10.37
